Time;durP1;ratioP1;P1;durP2;ratioP2;P2;SDS_P1;SDS_P2;PMS_P1;PMS_P2;Temp;Humidity;BMP_temperature;BMP_pressure;BME280_temperature;BME280_humidity;BME280_pressure;Samples;Min_cycle;Max_cycle;Signal;HPM_P1;HPM_P2
2023/08/14 00:00:18;;;;;;;12.05;9.57;;;;;;;;;;10181409;28;20054;-65
2023/08/14 00:05:15;;;;;;;10.68;9.57;;;;;;;;;;10171973;28;20049;-65
2023/08/14 00:10:11;;;;;;;10.50;9.38;;;;;;;;;;10176267;28;20042;-66
2023/08/14 00:15:07;;;;;;;11.82;10.27;;;;;;;;;;10181290;28;20053;-64
2023/08/14 00:20:04;;;;;;;10.50;9.50;;;;;;;;;;10181454;28;20177;-64
2023/08/14 00:25:00;;;;;;;13.45;10.38;;;;;;;;;;10173415;28;20062;-65
2023/08/14 00:29:57;;;;;;;11.75;10.25;;;;;;;;;;10175656;28;20049;-66
2023/08/14 00:34:53;;;;;;;10.98;9.98;;;;;;;;;;10183849;28;20077;-65
2023/08/14 00:39:49;;;;;;;11.52;10.43;;;;;;;;;;10196266;28;20100;-65
2023/08/14 00:44:46;;;;;;;12.50;11.02;;;;;;;;;;10189794;28;20073;-66
2023/08/14 00:49:42;;;;;;;11.20;10.15;;;;;;;;;;10193147;28;20053;-66
2023/08/14 00:54:38;;;;;;;10.85;9.88;;;;;;;;;;10186338;28;20046;-65
2023/08/14 00:59:35;;;;;;;11.35;10.38;;;;;;;;;;10182774;28;20390;-63
2023/08/14 01:09:43;;;;;;;12.00;10.73;;;;;;;;;;10602806;22;20045;-66
2023/08/14 01:14:41;;;;;;;11.27;10.35;;;;;;;;;;10268185;28;20064;-67
2023/08/14 01:19:39;;;;;;;11.48;10.48;;;;;;;;;;10249066;28;20524;-66
2023/08/14 01:24:49;;;;;;;10.95;9.85;;;;;;;;;;10249799;28;20049;-67
2023/08/14 01:29:56;;;;;;;11.05;10.15;;;;;;;;;;10252031;28;20049;-67
2023/08/14 01:34:53;;;;;;;11.38;10.30;;;;;;;;;;10280500;28;20041;-67
2023/08/14 01:39:53;;;;;;;10.65;9.65;;;;;;;;;;10261812;28;20103;-67
2023/08/14 01:44:51;;;;;;;10.68;9.68;;;;;;;;;;10269203;28;20052;-67
2023/08/14 01:49:47;;;;;;;10.85;9.95;;;;;;;;;;10269383;28;20048;-66
2023/08/14 01:54:44;;;;;;;11.57;10.48;;;;;;;;;;10264895;28;20048;-66
2023/08/14 01:59:41;;;;;;;13.25;10.38;;;;;;;;;;10253917;28;20145;-67
2023/08/14 02:04:38;;;;;;;11.90;10.80;;;;;;;;;;10265027;28;20429;-66
2023/08/14 02:09:34;;;;;;;11.55;10.50;;;;;;;;;;10272042;28;20064;-67
2023/08/14 02:14:31;;;;;;;13.05;10.55;;;;;;;;;;10268501;28;20398;-68
2023/08/14 02:19:27;;;;;;;11.80;10.65;;;;;;;;;;10256172;28;20041;-65
2023/08/14 02:24:23;;;;;;;11.43;10.32;;;;;;;;;;10267395;28;20045;-67
2023/08/14 02:29:20;;;;;;;11.45;10.45;;;;;;;;;;10267686;28;20049;-64
2023/08/14 02:34:32;;;;;;;12.05;10.95;;;;;;;;;;10271356;28;20118;-67
2023/08/14 02:39:28;;;;;;;11.10;10.10;;;;;;;;;;10255967;28;20557;-64
2023/08/14 02:44:25;;;;;;;11.52;10.40;;;;;;;;;;10271398;28;20049;-64
2023/08/14 02:49:21;;;;;;;12.00;10.88;;;;;;;;;;10272447;28;20665;-64
2023/08/14 02:54:17;;;;;;;11.38;10.30;;;;;;;;;;10276657;28;20041;-65
2023/08/14 02:59:14;;;;;;;11.43;10.55;;;;;;;;;;10254519;28;20417;-65
2023/08/14 03:04:11;;;;;;;11.63;10.55;;;;;;;;;;10255511;28;20422;-65
2023/08/14 03:09:07;;;;;;;11.30;10.30;;;;;;;;;;10257943;28;20100;-65
2023/08/14 03:14:03;;;;;;;11.40;10.25;;;;;;;;;;10259603;28;20391;-65
2023/08/14 03:19:00;;;;;;;11.35;10.38;;;;;;;;;;10268395;28;20048;-65
2023/08/14 03:23:56;;;;;;;12.73;11.73;;;;;;;;;;10268021;28;20037;-65
2023/08/14 03:28:53;;;;;;;12.45;11.35;;;;;;;;;;10258992;28;20041;-68
2023/08/14 03:33:49;;;;;;;11.60;10.70;;;;;;;;;;10266818;28;20048;-68
2023/08/14 03:38:45;;;;;;;11.20;10.30;;;;;;;;;;10261736;28;20049;-67
2023/08/14 03:43:42;;;;;;;11.20;10.23;;;;;;;;;;10271331;28;20066;-69
2023/08/14 03:48:46;;;;;;;12.00;11.10;;;;;;;;;;10255717;22;20060;-69
2023/08/14 03:53:43;;;;;;;11.45;10.43;;;;;;;;;;10206212;28;20042;-69
2023/08/14 03:58:39;;;;;;;11.82;10.93;;;;;;;;;;10214769;28;20508;-69
2023/08/14 04:03:36;;;;;;;11.73;10.73;;;;;;;;;;10222921;28;20038;-69
2023/08/14 04:08:32;;;;;;;13.10;12.00;;;;;;;;;;10212314;28;20045;-69
2023/08/14 04:13:29;;;;;;;12.90;11.80;;;;;;;;;;10206245;28;20045;-69
2023/08/14 04:18:26;;;;;;;13.35;12.23;;;;;;;;;;10207074;28;20119;-73
2023/08/14 04:23:24;;;;;;;13.85;12.55;;;;;;;;;;10204756;28;20053;-69
2023/08/14 04:28:23;;;;;;;12.95;11.65;;;;;;;;;;10227894;28;20132;-69
2023/08/14 04:33:19;;;;;;;13.15;11.98;;;;;;;;;;10210533;28;20065;-69
2023/08/14 04:38:16;;;;;;;13.35;12.27;;;;;;;;;;10203496;28;20124;-69
2023/08/14 04:43:12;;;;;;;12.60;11.30;;;;;;;;;;10190487;28;20049;-69
2023/08/14 04:48:09;;;;;;;13.68;12.35;;;;;;;;;;10197646;28;20064;-68
2023/08/14 04:53:06;;;;;;;12.95;11.75;;;;;;;;;;10190828;28;20048;-69
2023/08/14 04:58:02;;;;;;;12.38;11.20;;;;;;;;;;10185019;28;20514;-69
2023/08/14 05:02:59;;;;;;;13.13;12.02;;;;;;;;;;10199462;28;20408;-69
2023/08/14 05:07:55;;;;;;;13.15;12.07;;;;;;;;;;10198409;28;20519;-69
2023/08/14 05:12:52;;;;;;;14.52;13.20;;;;;;;;;;10201412;28;20415;-69
2023/08/14 05:17:48;;;;;;;14.82;13.45;;;;;;;;;;10212193;28;20038;-70
2023/08/14 05:22:45;;;;;;;13.88;12.25;;;;;;;;;;10210613;28;20156;-70
2023/08/14 05:27:41;;;;;;;13.30;12.00;;;;;;;;;;10212357;28;20095;-70
2023/08/14 05:32:38;;;;;;;13.07;11.95;;;;;;;;;;10228477;28;20050;-70
2023/08/14 05:37:34;;;;;;;14.45;13.15;;;;;;;;;;10432029;23;20462;-70
2023/08/14 05:42:31;;;;;;;13.80;12.52;;;;;;;;;;10292632;28;20051;-70
2023/08/14 05:47:27;;;;;;;13.93;12.77;;;;;;;;;;10300117;28;20048;-70
2023/08/14 05:52:23;;;;;;;13.27;11.98;;;;;;;;;;10303903;28;20124;-70
2023/08/14 05:57:20;;;;;;;14.05;12.73;;;;;;;;;;10304762;28;20048;-70
2023/08/14 06:02:16;;;;;;;13.75;12.35;;;;;;;;;;10290035;28;20083;-70
2023/08/14 06:07:13;;;;;;;13.93;12.73;;;;;;;;;;10299063;28;20132;-70
2023/08/14 06:12:09;;;;;;;13.65;12.48;;;;;;;;;;10301347;28;20610;-70
2023/08/14 06:17:05;;;;;;;15.05;13.52;;;;;;;;;;10312848;28;20049;-70
2023/08/14 06:22:02;;;;;;;12.70;11.65;;;;;;;;;;10288322;28;20059;-70
2023/08/14 06:26:58;;;;;;;14.75;13.45;;;;;;;;;;10299502;28;20052;-70
2023/08/14 06:31:56;;;;;;;12.73;11.48;;;;;;;;;;10311100;28;20048;-70
2023/08/14 06:36:53;;;;;;;12.45;11.27;;;;;;;;;;10294432;28;20295;-70
2023/08/14 06:41:49;;;;;;;14.25;11.75;;;;;;;;;;10301045;28;20565;-70
2023/08/14 06:46:46;;;;;;;13.52;10.20;;;;;;;;;;10300410;28;20056;-70
2023/08/14 06:51:42;;;;;;;11.70;9.70;;;;;;;;;;10297057;28;20071;-70
2023/08/14 06:56:38;;;;;;;10.23;9.23;;;;;;;;;;10295353;28;20106;-70
2023/08/14 07:01:35;;;;;;;10.43;9.43;;;;;;;;;;10298765;28;20582;-70
2023/08/14 07:06:31;;;;;;;15.43;9.43;;;;;;;;;;10288940;28;20063;-70
2023/08/14 07:11:27;;;;;;;12.23;8.85;;;;;;;;;;10313999;28;20527;-70
2023/08/14 07:16:24;;;;;;;9.55;8.55;;;;;;;;;;10290333;28;20099;-71
2023/08/14 07:21:20;;;;;;;11.63;8.90;;;;;;;;;;10292402;28;20102;-70
2023/08/14 07:31:28;;;;;;;9.55;8.38;;;;;;;;;;4221203;26;20534;-71
2023/08/14 07:36:24;;;;;;;9.40;8.48;;;;;;;;;;10225948;28;20099;-71
2023/08/14 07:41:21;;;;;;;10.25;8.88;;;;;;;;;;10223816;28;20048;-71
2023/08/14 07:46:18;;;;;;;9.95;8.85;;;;;;;;;;10231045;28;20045;-70
2023/08/14 07:51:14;;;;;;;10.57;8.48;;;;;;;;;;10232585;28;20508;-71
2023/08/14 08:01:31;;;;;;;8.93;7.85;;;;;;;;;;10190333;28;20133;-71
2023/08/14 08:06:28;;;;;;;8.52;7.70;;;;;;;;;;10172093;28;20096;-70
2023/08/14 08:11:24;;;;;;;9.00;7.93;;;;;;;;;;10163152;28;20043;-70
2023/08/14 08:16:20;;;;;;;9.77;8.88;;;;;;;;;;10180573;28;20049;-71
2023/08/14 08:21:17;;;;;;;11.02;8.63;;;;;;;;;;10181970;28;20046;-70
2023/08/14 08:31:25;;;;;;;10.75;8.15;;;;;;;;;;9283762;26;20129;-71
2023/08/14 08:36:21;;;;;;;8.93;8.00;;;;;;;;;;10173136;28;20098;-70
2023/08/14 08:41:24;;;;;;;9.20;7.45;;;;;;;;;;10133721;28;20660;-70
2023/08/14 08:46:22;;;;;;;9.65;7.95;;;;;;;;;;10132309;28;20054;-71
2023/08/14 08:51:18;;;;;;;11.20;8.25;;;;;;;;;;10128119;28;20051;-70
2023/08/14 08:56:15;;;;;;;11.07;8.25;;;;;;;;;;10120448;28;20186;-71
2023/08/14 09:01:11;;;;;;;11.20;8.02;;;;;;;;;;10127793;28;20141;-70
2023/08/14 09:06:08;;;;;;;10.38;8.55;;;;;;;;;;10130324;28;20521;-71
2023/08/14 09:11:04;;;;;;;12.32;7.85;;;;;;;;;;10143607;28;20043;-71
2023/08/14 09:21:12;;;;;;;10.27;7.72;;;;;;;;;;10370824;23;20497;-70
2023/08/14 09:26:10;;;;;;;10.48;7.97;;;;;;;;;;10304079;28;20067;-70
2023/08/14 09:31:07;;;;;;;9.10;7.70;;;;;;;;;;10293110;28;20473;-71
2023/08/14 09:36:04;;;;;;;8.95;8.07;;;;;;;;;;10304828;28;20048;-71
2023/08/14 09:41:01;;;;;;;11.25;8.30;;;;;;;;;;10301106;28;22061;-70
2023/08/14 09:45:58;;;;;;;10.00;7.93;;;;;;;;;;10302434;28;20055;-70
2023/08/14 09:50:54;;;;;;;8.35;7.55;;;;;;;;;;10301542;28;20059;-70
2023/08/14 10:01:03;;;;;;;8.85;7.95;;;;;;;;;;9870543;26;20040;-71
2023/08/14 10:06:00;;;;;;;8.65;7.88;;;;;;;;;;10284951;28;20052;-71
2023/08/14 10:10:57;;;;;;;8.55;7.75;;;;;;;;;;10292190;28;20074;-71
2023/08/14 10:21:28;;;;;;;11.70;8.73;;;;;;;;;;10814858;23;20049;-71
2023/08/14 10:26:25;;;;;;;8.77;7.28;;;;;;;;;;10200875;28;20048;-71
2023/08/14 10:31:24;;;;;;;10.70;8.00;;;;;;;;;;10223234;28;20053;-71
2023/08/14 10:36:22;;;;;;;8.32;7.53;;;;;;;;;;10231439;28;20049;-71
2023/08/14 10:41:18;;;;;;;9.73;8.15;;;;;;;;;;10211895;28;20060;-71
2023/08/14 10:46:15;;;;;;;8.82;7.88;;;;;;;;;;10217505;28;20049;-71
2023/08/14 10:51:16;;;;;;;9.00;8.00;;;;;;;;;;10219904;28;20053;-71
2023/08/14 11:01:34;;;;;;;8.82;7.93;;;;;;;;;;10355637;23;20082;-71
2023/08/14 11:11:43;;;;;;;8.27;7.00;;;;;;;;;;10348043;22;20041;-71
2023/08/14 11:16:40;;;;;;;12.82;7.57;;;;;;;;;;10226007;28;20044;-70
2023/08/14 11:21:37;;;;;;;8.98;8.25;;;;;;;;;;10275356;28;20052;-70
2023/08/14 11:31:42;;;;;;;9.48;7.57;;;;;;;;;;10737948;22;20057;-70
2023/08/14 11:36:54;;;;;;;8.55;7.65;;;;;;;;;;10225292;28;20052;-70
2023/08/14 11:41:54;;;;;;;8.95;7.88;;;;;;;;;;10230182;28;20431;-69
2023/08/14 11:46:50;;;;;;;9.80;7.70;;;;;;;;;;10228767;28;20506;-70
2023/08/14 11:51:47;;;;;;;9.38;8.48;;;;;;;;;;10226152;28;20057;-70
2023/08/14 11:56:44;;;;;;;9.70;8.70;;;;;;;;;;10222223;28;20060;-70
2023/08/14 12:01:41;;;;;;;9.23;8.43;;;;;;;;;;10232634;28;20049;-70
2023/08/14 12:06:37;;;;;;;8.82;8.10;;;;;;;;;;10216178;28;20045;-70
2023/08/14 12:11:34;;;;;;;8.82;7.93;;;;;;;;;;10215284;28;20073;-71
2023/08/14 12:16:30;;;;;;;8.75;7.88;;;;;;;;;;10226820;28;20145;-70
2023/08/14 12:21:27;;;;;;;10.73;9.68;;;;;;;;;;10224325;28;20058;-70
2023/08/14 12:26:23;;;;;;;9.93;8.98;;;;;;;;;;10231247;28;20489;-71
2023/08/14 12:31:20;;;;;;;10.25;8.98;;;;;;;;;;10222924;28;20136;-70
2023/08/14 12:36:16;;;;;;;9.05;8.18;;;;;;;;;;10220674;28;20053;-71
2023/08/14 12:41:12;;;;;;;9.20;8.40;;;;;;;;;;10230344;28;20053;-72
2023/08/14 12:46:09;;;;;;;10.55;9.02;;;;;;;;;;10215790;28;20052;-71
2023/08/14 12:51:06;;;;;;;9.18;8.27;;;;;;;;;;10234358;28;20042;-70
2023/08/14 12:56:03;;;;;;;8.73;8.02;;;;;;;;;;10226149;28;20046;-71
2023/08/14 13:01:00;;;;;;;8.80;8.00;;;;;;;;;;10228311;28;20065;-70
2023/08/14 13:05:59;;;;;;;9.13;8.18;;;;;;;;;;10214182;28;20061;-71
2023/08/14 13:10:56;;;;;;;8.90;8.10;;;;;;;;;;10222660;28;20050;-71
2023/08/14 13:15:52;;;;;;;8.27;7.57;;;;;;;;;;10206212;28;20064;-70
2023/08/14 13:20:48;;;;;;;8.93;7.90;;;;;;;;;;10229588;28;20557;-71
2023/08/14 13:25:45;;;;;;;8.30;7.43;;;;;;;;;;10221190;28;20049;-70
2023/08/14 13:30:41;;;;;;;9.75;8.32;;;;;;;;;;10433038;23;20052;-70
2023/08/14 13:35:40;;;;;;;8.20;7.50;;;;;;;;;;10272659;28;20128;-70
2023/08/14 13:40:36;;;;;;;8.40;7.60;;;;;;;;;;10264825;28;20067;-70
2023/08/14 13:45:33;;;;;;;12.05;7.72;;;;;;;;;;10273563;28;20071;-70
2023/08/14 13:50:30;;;;;;;9.88;7.85;;;;;;;;;;10256397;28;20049;-70
2023/08/14 13:55:30;;;;;;;8.32;7.53;;;;;;;;;;10274401;28;20040;-71
2023/08/14 14:00:26;;;;;;;11.27;8.25;;;;;;;;;;10271612;28;20068;-71
2023/08/14 14:05:25;;;;;;;13.23;7.80;;;;;;;;;;10256264;28;20491;-71
2023/08/14 14:10:22;;;;;;;10.35;7.65;;;;;;;;;;10259814;28;20052;-70
2023/08/14 14:15:18;;;;;;;9.07;8.25;;;;;;;;;;10265838;28;20053;-70
2023/08/14 14:25:26;;;;;;;7.57;6.93;;;;;;;;;;10273936;23;20141;-71
2023/08/14 14:31:16;;;;;;;8.55;7.53;;;;;;;;;;10244475;23;20061;-71
2023/08/14 14:36:05;;;;;;;8.25;7.43;;;;;;;;;;10210241;28;20061;-71
2023/08/14 14:41:02;;;;;;;8.25;7.53;;;;;;;;;;10188218;28;20054;-70
2023/08/14 14:45:59;;;;;;;9.55;7.10;;;;;;;;;;10216809;28;20069;-70
2023/08/14 14:50:55;;;;;;;8.82;7.93;;;;;;;;;;10212322;28;20401;-70
2023/08/14 14:55:52;;;;;;;8.85;7.35;;;;;;;;;;10210333;28;20095;-71
2023/08/14 15:00:50;;;;;;;8.60;7.70;;;;;;;;;;10209424;28;20046;-70
2023/08/14 15:05:50;;;;;;;9.15;7.65;;;;;;;;;;10215204;28;20113;-70
2023/08/14 15:10:46;;;;;;;9.48;8.43;;;;;;;;;;10211075;28;20049;-71
2023/08/14 15:15:42;;;;;;;16.35;8.18;;;;;;;;;;10212269;28;20054;-71
2023/08/14 15:20:38;;;;;;;7.88;7.18;;;;;;;;;;10215165;28;20042;-71
2023/08/14 15:25:35;;;;;;;10.35;7.47;;;;;;;;;;10215244;28;20062;-71
2023/08/14 15:30:33;;;;;;;8.32;7.55;;;;;;;;;;10207218;28;20053;-70
2023/08/14 15:35:29;;;;;;;8.82;7.30;;;;;;;;;;10199481;28;20045;-72
2023/08/14 15:45:37;;;;;;;8.27;7.53;;;;;;;;;;10276418;22;20437;-70
2023/08/14 15:51:31;;;;;;;9.38;8.57;;;;;;;;;;10210456;23;20052;-70
2023/08/14 16:01:19;;;;;;;8.93;8.02;;;;;;;;;;9916188;23;20048;-71
2023/08/14 16:06:16;;;;;;;10.80;7.70;;;;;;;;;;10227039;28;20194;-69
2023/08/14 16:11:12;;;;;;;8.23;7.43;;;;;;;;;;10248408;28;20053;-70
2023/08/14 16:16:08;;;;;;;7.50;6.70;;;;;;;;;;10263376;28;20060;-72
2023/08/14 16:21:06;;;;;;;8.07;6.78;;;;;;;;;;10256926;28;20503;-70
2023/08/14 16:31:14;;;;;;;8.00;6.93;;;;;;;;;;10262597;23;20045;-70
2023/08/14 16:36:43;;;;;;;7.93;7.00;;;;;;;;;;10225194;23;20072;-70
2023/08/14 16:42:02;;;;;;;9.77;7.40;;;;;;;;;;10211660;28;20046;-70
2023/08/14 16:46:58;;;;;;;7.25;6.63;;;;;;;;;;10332783;23;21187;-70
2023/08/14 16:51:55;;;;;;;8.75;7.18;;;;;;;;;;10266709;28;20052;-70
2023/08/14 16:56:51;;;;;;;7.55;6.95;;;;;;;;;;10269177;28;20561;-70
2023/08/14 17:01:47;;;;;;;7.80;7.10;;;;;;;;;;10263192;28;20041;-71
2023/08/14 17:06:44;;;;;;;7.40;6.70;;;;;;;;;;10257675;28;20079;-72
2023/08/14 17:11:40;;;;;;;7.85;6.57;;;;;;;;;;10258555;28;20404;-71
2023/08/14 17:22:44;;;;;;;7.65;6.85;;;;;;;;;;10283680;28;20423;-71
2023/08/14 17:32:52;;;;;;;7.53;6.45;;;;;;;;;;10250094;23;20045;-72
2023/08/14 17:37:51;;;;;;;7.97;6.97;;;;;;;;;;10207079;28;20439;-71
2023/08/14 17:42:48;;;;;;;8.13;6.70;;;;;;;;;;10198385;28;20042;-72
2023/08/14 17:47:44;;;;;;;7.63;6.22;;;;;;;;;;10191980;28;20508;-72
2023/08/14 17:52:40;;;;;;;7.45;6.30;;;;;;;;;;10200858;28;20510;-71
2023/08/14 17:57:37;;;;;;;6.53;5.93;;;;;;;;;;10193409;28;20042;-71
2023/08/14 18:02:33;;;;;;;7.90;6.50;;;;;;;;;;10185753;28;20046;-72
2023/08/14 18:07:30;;;;;;;6.68;6.07;;;;;;;;;;10209008;23;20072;-72
2023/08/14 18:12:26;;;;;;;7.47;6.28;;;;;;;;;;10188298;28;20694;-71
2023/08/14 18:17:22;;;;;;;6.82;6.22;;;;;;;;;;10188133;28;20046;-72
2023/08/14 18:22:19;;;;;;;7.63;6.93;;;;;;;;;;10199071;28;20156;-72
2023/08/14 18:39:48;;;;;;;7.38;6.50;;;;;;;;;;10214786;23;20050;-72
2023/08/14 18:44:38;;;;;;;7.65;6.90;;;;;;;;;;10246574;28;20521;-73
2023/08/14 18:49:34;;;;;;;8.63;6.78;;;;;;;;;;10439322;23;20576;-74
2023/08/14 18:54:31;;;;;;;7.55;6.85;;;;;;;;;;10233638;28;20057;-75
2023/08/14 18:59:28;;;;;;;7.28;6.68;;;;;;;;;;10213378;28;20049;-75
2023/08/14 19:04:24;;;;;;;8.27;7.47;;;;;;;;;;10223691;28;20056;-75
2023/08/14 19:23:16;;;;;;;8.82;7.88;;;;;;;;;;10138728;28;20141;-75
2023/08/14 19:28:04;;;;;;;9.55;8.45;;;;;;;;;;10188337;22;20064;-75
2023/08/14 19:33:17;;;;;;;9.60;8.00;;;;;;;;;;10203605;28;20486;-75
2023/08/14 19:38:13;;;;;;;11.77;8.52;;;;;;;;;;10211828;28;20041;-75
2023/08/14 19:43:09;;;;;;;12.63;8.93;;;;;;;;;;10211127;28;20070;-73
2023/08/14 19:48:06;;;;;;;17.63;9.82;;;;;;;;;;10228848;28;20053;-68
2023/08/14 19:53:02;;;;;;;11.40;9.40;;;;;;;;;;10209179;28;20069;-70
2023/08/14 19:57:59;;;;;;;14.60;11.27;;;;;;;;;;10214168;28;20061;-70
2023/08/14 20:02:55;;;;;;;13.07;10.45;;;;;;;;;;10215612;28;20052;-70
2023/08/14 20:07:52;;;;;;;12.30;10.48;;;;;;;;;;10225656;28;20490;-68
2023/08/14 20:12:48;;;;;;;10.90;9.88;;;;;;;;;;10228053;28;20089;-69
2023/08/14 20:17:57;;;;;;;10.63;9.52;;;;;;;;;;10232595;23;20095;-69
2023/08/14 20:23:18;;;;;;;11.15;10.02;;;;;;;;;;10216852;28;20047;-68
2023/08/14 20:28:14;;;;;;;10.25;9.25;;;;;;;;;;10226619;28;20049;-69
2023/08/14 20:33:11;;;;;;;11.70;10.48;;;;;;;;;;10246844;28;20059;-66
2023/08/14 20:38:08;;;;;;;11.25;9.50;;;;;;;;;;10264067;28;20045;-67
2023/08/14 20:43:07;;;;;;;13.77;10.13;;;;;;;;;;10254063;28;20506;-67
2023/08/14 20:48:04;;;;;;;10.95;9.85;;;;;;;;;;10258485;28;20087;-67
2023/08/14 20:53:01;;;;;;;12.07;10.57;;;;;;;;;;10267573;28;20052;-68
2023/08/14 20:57:57;;;;;;;11.20;9.82;;;;;;;;;;10268929;28;20646;-67
2023/08/14 21:02:54;;;;;;;10.43;9.30;;;;;;;;;;10273716;28;20050;-67
2023/08/14 21:07:52;;;;;;;11.77;10.50;;;;;;;;;;10271382;28;20041;-67
2023/08/14 21:12:48;;;;;;;11.63;9.95;;;;;;;;;;10267859;28;20053;-68
2023/08/14 21:17:44;;;;;;;11.35;10.15;;;;;;;;;;10284119;23;21285;-68
2023/08/14 21:22:41;;;;;;;11.77;10.02;;;;;;;;;;10241630;28;20056;-68
2023/08/14 21:27:37;;;;;;;12.65;9.93;;;;;;;;;;10218825;28;20042;-68
2023/08/14 21:32:35;;;;;;;12.05;10.10;;;;;;;;;;10240469;28;20054;-71
2023/08/14 21:37:31;;;;;;;12.45;11.20;;;;;;;;;;10238551;28;20486;-71
2023/08/14 21:42:28;;;;;;;12.18;10.95;;;;;;;;;;10227077;28;20045;-72
2023/08/14 21:47:24;;;;;;;14.45;10.77;;;;;;;;;;10227974;28;20080;-71
2023/08/14 21:52:20;;;;;;;11.48;10.15;;;;;;;;;;10242162;28;20096;-68
2023/08/14 21:57:17;;;;;;;14.52;10.30;;;;;;;;;;10239431;28;20084;-69
2023/08/14 22:02:14;;;;;;;10.52;9.52;;;;;;;;;;10244195;28;20453;-69
2023/08/14 22:07:10;;;;;;;12.65;10.07;;;;;;;;;;10226878;28;20073;-69
2023/08/14 22:12:06;;;;;;;10.98;9.32;;;;;;;;;;10224813;28;20418;-70
2023/08/14 22:17:03;;;;;;;13.38;9.90;;;;;;;;;;10240123;28;20051;-68
2023/08/14 22:21:59;;;;;;;10.98;9.82;;;;;;;;;;10235239;28;20095;-70
2023/08/14 22:27:30;;;;;;;12.70;9.70;;;;;;;;;;10275631;23;20065;-70
2023/08/14 22:33:03;;;;;;;11.93;9.95;;;;;;;;;;10163960;28;20467;-70
2023/08/14 22:38:13;;;;;;;14.90;10.13;;;;;;;;;;10198307;28;20049;-70
2023/08/14 22:43:10;;;;;;;11.43;9.88;;;;;;;;;;10229655;28;20514;-70
2023/08/14 22:48:06;;;;;;;11.02;9.48;;;;;;;;;;10222811;28;20041;-70
2023/08/14 22:53:03;;;;;;;11.20;10.07;;;;;;;;;;10226870;28;20557;-70
2023/08/14 22:57:59;;;;;;;12.55;10.40;;;;;;;;;;10442817;23;20042;-69
2023/08/14 23:02:56;;;;;;;11.35;10.02;;;;;;;;;;10225037;28;20060;-69
2023/08/14 23:07:52;;;;;;;14.60;11.30;;;;;;;;;;10228371;28;20049;-69
2023/08/14 23:12:49;;;;;;;12.52;11.23;;;;;;;;;;10222398;28;20680;-70
2023/08/14 23:17:45;;;;;;;14.73;10.27;;;;;;;;;;10235118;28;20091;-69
2023/08/14 23:22:41;;;;;;;16.30;11.18;;;;;;;;;;10241308;28;20049;-69
2023/08/14 23:27:38;;;;;;;10.73;9.60;;;;;;;;;;10239489;28;20072;-69
2023/08/14 23:32:34;;;;;;;11.80;10.45;;;;;;;;;;10227771;28;20049;-70
2023/08/14 23:37:30;;;;;;;12.25;10.45;;;;;;;;;;10224400;28;20446;-70
2023/08/14 23:42:27;;;;;;;12.52;9.90;;;;;;;;;;10228176;28;20106;-70
2023/08/14 23:47:23;;;;;;;13.88;10.75;;;;;;;;;;10229481;28;20139;-70
2023/08/14 23:52:19;;;;;;;13.88;10.52;;;;;;;;;;10233668;28;20045;-70
2023/08/14 23:57:16;;;;;;;11.57;10.38;;;;;;;;;;10239759;28;20061;-71
